sensor_id;sensor_type;location;lat;lon;timestamp;P1;durP1;ratioP1;P2;durP2;ratioP2
3052;SDS011;1536;51.098;6.414;2022-10-15T00:00:32;11.80;;;10.00;;
3052;SDS011;1536;51.098;6.414;2022-10-15T00:02:59;12.70;;;9.70;;
3052;SDS011;1536;51.098;6.414;2022-10-15T00:05:25;9.53;;;8.63;;
3052;SDS011;1536;51.098;6.414;2022-10-15T00:07:53;9.77;;;8.87;;
3052;SDS011;1536;51.098;6.414;2022-10-15T00:10:21;9.43;;;8.57;;
3052;SDS011;1536;51.098;6.414;2022-10-15T00:12:48;9.93;;;9.10;;
3052;SDS011;1536;51.098;6.414;2022-10-15T00:15:14;11.20;;;8.87;;
3052;SDS011;1536;51.098;6.414;2022-10-15T00:17:41;11.73;;;9.87;;
3052;SDS011;1536;51.098;6.414;2022-10-15T00:20:08;10.43;;;9.37;;
3052;SDS011;1536;51.098;6.414;2022-10-15T00:22:36;9.50;;;8.70;;
3052;SDS011;1536;51.098;6.414;2022-10-15T00:25:05;9.20;;;8.30;;
3052;SDS011;1536;51.098;6.414;2022-10-15T00:27:32;10.77;;;8.50;;
3052;SDS011;1536;51.098;6.414;2022-10-15T00:30:00;9.20;;;8.10;;
3052;SDS011;1536;51.098;6.414;2022-10-15T00:32:27;10.87;;;8.00;;
3052;SDS011;1536;51.098;6.414;2022-10-15T00:34:54;11.20;;;8.77;;
3052;SDS011;1536;51.098;6.414;2022-10-15T00:37:21;11.07;;;7.47;;
3052;SDS011;1536;51.098;6.414;2022-10-15T00:39:48;10.00;;;8.50;;
3052;SDS011;1536;51.098;6.414;2022-10-15T00:42:16;8.93;;;8.03;;
3052;SDS011;1536;51.098;6.414;2022-10-15T00:44:50;8.47;;;7.57;;
3052;SDS011;1536;51.098;6.414;2022-10-15T00:47:21;9.53;;;8.33;;
3052;SDS011;1536;51.098;6.414;2022-10-15T00:49:53;9.57;;;8.23;;
3052;SDS011;1536;51.098;6.414;2022-10-15T00:52:29;10.23;;;8.50;;
3052;SDS011;1536;51.098;6.414;2022-10-15T00:55:02;8.90;;;8.10;;
3052;SDS011;1536;51.098;6.414;2022-10-15T00:57:34;9.20;;;8.30;;
3052;SDS011;1536;51.098;6.414;2022-10-15T01:00:05;8.33;;;7.53;;
3052;SDS011;1536;51.098;6.414;2022-10-15T01:02:33;9.30;;;8.37;;
3052;SDS011;1536;51.098;6.414;2022-10-15T01:05:00;10.53;;;7.80;;
3052;SDS011;1536;51.098;6.414;2022-10-15T01:07:27;9.60;;;7.30;;
3052;SDS011;1536;51.098;6.414;2022-10-15T01:09:54;7.13;;;6.50;;
3052;SDS011;1536;51.098;6.414;2022-10-15T01:12:24;7.50;;;6.77;;
3052;SDS011;1536;51.098;6.414;2022-10-15T01:15:02;7.63;;;6.93;;
3052;SDS011;1536;51.098;6.414;2022-10-15T01:17:37;7.83;;;7.17;;
3052;SDS011;1536;51.098;6.414;2022-10-15T01:20:21;8.20;;;6.80;;
3052;SDS011;1536;51.098;6.414;2022-10-15T01:23:23;7.77;;;7.17;;
3052;SDS011;1536;51.098;6.414;2022-10-15T01:26:24;8.07;;;6.77;;
3052;SDS011;1536;51.098;6.414;2022-10-15T01:29:16;8.77;;;7.20;;
3052;SDS011;1536;51.098;6.414;2022-10-15T01:31:55;7.37;;;6.20;;
3052;SDS011;1536;51.098;6.414;2022-10-15T01:34:29;8.53;;;7.07;;
3052;SDS011;1536;51.098;6.414;2022-10-15T01:37:01;8.37;;;7.57;;
3052;SDS011;1536;51.098;6.414;2022-10-15T01:39:35;7.60;;;6.90;;
3052;SDS011;1536;51.098;6.414;2022-10-15T01:42:09;8.30;;;7.40;;
3052;SDS011;1536;51.098;6.414;2022-10-15T01:44:41;8.80;;;7.13;;
3052;SDS011;1536;51.098;6.414;2022-10-15T01:47:15;8.37;;;7.57;;
3052;SDS011;1536;51.098;6.414;2022-10-15T01:49:45;8.57;;;7.77;;
3052;SDS011;1536;51.098;6.414;2022-10-15T01:52:15;8.07;;;7.20;;
3052;SDS011;1536;51.098;6.414;2022-10-15T01:54:44;8.83;;;7.93;;
3052;SDS011;1536;51.098;6.414;2022-10-15T01:57:13;9.10;;;7.87;;
3052;SDS011;1536;51.098;6.414;2022-10-15T01:59:41;8.83;;;7.63;;
3052;SDS011;1536;51.098;6.414;2022-10-15T02:02:09;7.83;;;7.03;;
3052;SDS011;1536;51.098;6.414;2022-10-15T02:04:37;7.80;;;7.00;;
3052;SDS011;1536;51.098;6.414;2022-10-15T02:07:05;7.87;;;7.17;;
3052;SDS011;1536;51.098;6.414;2022-10-15T02:09:37;8.57;;;6.87;;
3052;SDS011;1536;51.098;6.414;2022-10-15T02:12:18;7.03;;;6.43;;
3052;SDS011;1536;51.098;6.414;2022-10-15T02:14:58;8.43;;;7.63;;
3052;SDS011;1536;51.098;6.414;2022-10-15T02:17:29;8.90;;;8.07;;
3052;SDS011;1536;51.098;6.414;2022-10-15T02:20:04;9.00;;;7.30;;
3052;SDS011;1536;51.098;6.414;2022-10-15T02:22:36;7.77;;;6.53;;
3052;SDS011;1536;51.098;6.414;2022-10-15T02:25:08;7.80;;;7.00;;
3052;SDS011;1536;51.098;6.414;2022-10-15T02:27:41;8.57;;;7.77;;
3052;SDS011;1536;51.098;6.414;2022-10-15T02:30:11;9.33;;;7.00;;
3052;SDS011;1536;51.098;6.414;2022-10-15T02:32:38;10.53;;;6.83;;
3052;SDS011;1536;51.098;6.414;2022-10-15T02:35:08;8.47;;;7.60;;
3052;SDS011;1536;51.098;6.414;2022-10-15T02:37:37;8.07;;;7.27;;
3052;SDS011;1536;51.098;6.414;2022-10-15T02:40:09;7.87;;;7.10;;
3052;SDS011;1536;51.098;6.414;2022-10-15T02:42:37;8.60;;;7.47;;
3052;SDS011;1536;51.098;6.414;2022-10-15T02:45:04;8.17;;;7.37;;
3052;SDS011;1536;51.098;6.414;2022-10-15T02:47:31;9.77;;;7.60;;
3052;SDS011;1536;51.098;6.414;2022-10-15T02:49:58;7.57;;;6.60;;
3052;SDS011;1536;51.098;6.414;2022-10-15T02:52:26;9.83;;;7.37;;
3052;SDS011;1536;51.098;6.414;2022-10-15T02:54:52;7.93;;;7.13;;
3052;SDS011;1536;51.098;6.414;2022-10-15T02:57:19;11.13;;;7.60;;
3052;SDS011;1536;51.098;6.414;2022-10-15T02:59:46;7.87;;;7.10;;
3052;SDS011;1536;51.098;6.414;2022-10-15T03:02:13;8.50;;;7.60;;
3052;SDS011;1536;51.098;6.414;2022-10-15T03:04:39;8.87;;;7.40;;
3052;SDS011;1536;51.098;6.414;2022-10-15T03:07:06;8.17;;;7.03;;
3052;SDS011;1536;51.098;6.414;2022-10-15T03:09:34;7.97;;;6.80;;
3052;SDS011;1536;51.098;6.414;2022-10-15T03:12:01;8.90;;;8.00;;
3052;SDS011;1536;51.098;6.414;2022-10-15T03:14:27;8.57;;;7.30;;
3052;SDS011;1536;51.098;6.414;2022-10-15T03:16:54;8.10;;;7.30;;
3052;SDS011;1536;51.098;6.414;2022-10-15T03:19:21;10.37;;;8.00;;
3052;SDS011;1536;51.098;6.414;2022-10-15T03:21:48;9.30;;;7.57;;
3052;SDS011;1536;51.098;6.414;2022-10-15T03:24:14;8.23;;;7.37;;
3052;SDS011;1536;51.098;6.414;2022-10-15T03:26:42;10.17;;;8.30;;
3052;SDS011;1536;51.098;6.414;2022-10-15T03:29:09;8.63;;;7.77;;
3052;SDS011;1536;51.098;6.414;2022-10-15T03:31:36;9.73;;;7.57;;
3052;SDS011;1536;51.098;6.414;2022-10-15T03:34:02;11.33;;;7.97;;
3052;SDS011;1536;51.098;6.414;2022-10-15T03:36:29;12.90;;;8.40;;
3052;SDS011;1536;51.098;6.414;2022-10-15T03:38:56;8.53;;;7.23;;
3052;SDS011;1536;51.098;6.414;2022-10-15T03:41:23;9.47;;;8.40;;
3052;SDS011;1536;51.098;6.414;2022-10-15T03:43:51;9.60;;;8.30;;
3052;SDS011;1536;51.098;6.414;2022-10-15T03:46:17;9.40;;;8.30;;
3052;SDS011;1536;51.098;6.414;2022-10-15T03:48:47;9.13;;;8.23;;
3052;SDS011;1536;51.098;6.414;2022-10-15T03:51:14;9.03;;;7.87;;
3052;SDS011;1536;51.098;6.414;2022-10-15T03:53:40;9.07;;;7.87;;
3052;SDS011;1536;51.098;6.414;2022-10-15T03:56:07;9.07;;;8.20;;
3052;SDS011;1536;51.098;6.414;2022-10-15T03:58:34;9.50;;;8.60;;
3052;SDS011;1536;51.098;6.414;2022-10-15T04:01:06;9.80;;;8.83;;
3052;SDS011;1536;51.098;6.414;2022-10-15T04:03:34;9.80;;;8.07;;
3052;SDS011;1536;51.098;6.414;2022-10-15T04:06:00;13.53;;;8.37;;
3052;SDS011;1536;51.098;6.414;2022-10-15T04:08:27;11.60;;;8.93;;
3052;SDS011;1536;51.098;6.414;2022-10-15T04:10:54;9.13;;;8.20;;
3052;SDS011;1536;51.098;6.414;2022-10-15T04:13:21;12.93;;;7.73;;
3052;SDS011;1536;51.098;6.414;2022-10-15T04:15:47;11.10;;;8.83;;
3052;SDS011;1536;51.098;6.414;2022-10-15T04:18:15;9.93;;;8.93;;
3052;SDS011;1536;51.098;6.414;2022-10-15T04:20:44;12.30;;;9.90;;
3052;SDS011;1536;51.098;6.414;2022-10-15T04:23:11;13.53;;;9.53;;
3052;SDS011;1536;51.098;6.414;2022-10-15T04:25:37;14.37;;;9.20;;
3052;SDS011;1536;51.098;6.414;2022-10-15T04:28:04;12.57;;;10.20;;
3052;SDS011;1536;51.098;6.414;2022-10-15T04:30:31;14.90;;;11.27;;
3052;SDS011;1536;51.098;6.414;2022-10-15T04:32:58;13.10;;;11.10;;
3052;SDS011;1536;51.098;6.414;2022-10-15T04:35:26;12.70;;;10.53;;
3052;SDS011;1536;51.098;6.414;2022-10-15T04:37:53;12.73;;;11.13;;
3052;SDS011;1536;51.098;6.414;2022-10-15T04:40:22;13.10;;;10.90;;
3052;SDS011;1536;51.098;6.414;2022-10-15T04:42:49;15.53;;;12.40;;
3052;SDS011;1536;51.098;6.414;2022-10-15T04:45:15;12.63;;;11.33;;
3052;SDS011;1536;51.098;6.414;2022-10-15T04:47:42;12.13;;;10.00;;
3052;SDS011;1536;51.098;6.414;2022-10-15T04:50:09;12.30;;;11.03;;
3052;SDS011;1536;51.098;6.414;2022-10-15T04:52:38;13.60;;;12.20;;
3052;SDS011;1536;51.098;6.414;2022-10-15T04:55:05;17.60;;;11.57;;
3052;SDS011;1536;51.098;6.414;2022-10-15T04:57:32;11.43;;;10.33;;
3052;SDS011;1536;51.098;6.414;2022-10-15T04:59:59;12.43;;;11.20;;
3052;SDS011;1536;51.098;6.414;2022-10-15T05:02:26;12.67;;;11.13;;
3052;SDS011;1536;51.098;6.414;2022-10-15T05:04:52;12.47;;;10.33;;
3052;SDS011;1536;51.098;6.414;2022-10-15T05:07:19;13.07;;;11.67;;
3052;SDS011;1536;51.098;6.414;2022-10-15T05:09:47;14.13;;;11.10;;
3052;SDS011;1536;51.098;6.414;2022-10-15T05:12:14;14.07;;;10.70;;
3052;SDS011;1536;51.098;6.414;2022-10-15T05:14:40;12.87;;;11.47;;
3052;SDS011;1536;51.098;6.414;2022-10-15T05:17:07;14.63;;;12.57;;
3052;SDS011;1536;51.098;6.414;2022-10-15T05:19:34;16.20;;;11.73;;
3052;SDS011;1536;51.098;6.414;2022-10-15T05:22:00;14.23;;;12.60;;
3052;SDS011;1536;51.098;6.414;2022-10-15T05:24:27;14.77;;;13.17;;
3052;SDS011;1536;51.098;6.414;2022-10-15T05:26:55;20.63;;;15.60;;
3052;SDS011;1536;51.098;6.414;2022-10-15T05:29:22;20.43;;;15.10;;
3052;SDS011;1536;51.098;6.414;2022-10-15T05:31:49;16.93;;;14.27;;
3052;SDS011;1536;51.098;6.414;2022-10-15T05:34:16;18.80;;;16.20;;
3052;SDS011;1536;51.098;6.414;2022-10-15T05:36:43;19.70;;;16.33;;
3052;SDS011;1536;51.098;6.414;2022-10-15T05:39:10;21.90;;;17.80;;
3052;SDS011;1536;51.098;6.414;2022-10-15T05:41:38;21.47;;;18.10;;
3052;SDS011;1536;51.098;6.414;2022-10-15T05:44:06;22.10;;;19.27;;
3052;SDS011;1536;51.098;6.414;2022-10-15T05:46:32;25.60;;;21.00;;
3052;SDS011;1536;51.098;6.414;2022-10-15T05:48:59;25.67;;;19.93;;
3052;SDS011;1536;51.098;6.414;2022-10-15T05:51:26;26.10;;;21.70;;
3052;SDS011;1536;51.098;6.414;2022-10-15T05:53:54;31.67;;;22.70;;
3052;SDS011;1536;51.098;6.414;2022-10-15T05:56:21;33.77;;;22.33;;
3052;SDS011;1536;51.098;6.414;2022-10-15T05:58:48;31.00;;;24.27;;
3052;SDS011;1536;51.098;6.414;2022-10-15T06:01:17;32.27;;;24.47;;
3052;SDS011;1536;51.098;6.414;2022-10-15T06:03:44;34.60;;;25.80;;
3052;SDS011;1536;51.098;6.414;2022-10-15T06:06:15;38.60;;;24.70;;
3052;SDS011;1536;51.098;6.414;2022-10-15T06:08:44;30.37;;;24.23;;
3052;SDS011;1536;51.098;6.414;2022-10-15T06:11:11;36.70;;;26.03;;
3052;SDS011;1536;51.098;6.414;2022-10-15T06:13:38;33.60;;;26.93;;
3052;SDS011;1536;51.098;6.414;2022-10-15T06:16:06;36.23;;;27.30;;
3052;SDS011;1536;51.098;6.414;2022-10-15T06:18:35;32.13;;;25.50;;
3052;SDS011;1536;51.098;6.414;2022-10-15T06:21:03;30.93;;;24.80;;
3052;SDS011;1536;51.098;6.414;2022-10-15T06:23:30;31.67;;;24.10;;
3052;SDS011;1536;51.098;6.414;2022-10-15T06:26:00;30.80;;;24.30;;
3052;SDS011;1536;51.098;6.414;2022-10-15T06:28:28;30.50;;;25.27;;
3052;SDS011;1536;51.098;6.414;2022-10-15T06:30:56;29.90;;;22.80;;
3052;SDS011;1536;51.098;6.414;2022-10-15T06:33:23;29.07;;;23.00;;
3052;SDS011;1536;51.098;6.414;2022-10-15T06:35:51;27.67;;;21.60;;
3052;SDS011;1536;51.098;6.414;2022-10-15T06:38:18;29.73;;;23.20;;
3052;SDS011;1536;51.098;6.414;2022-10-15T06:40:45;26.07;;;21.10;;
3052;SDS011;1536;51.098;6.414;2022-10-15T06:43:12;28.17;;;20.27;;
3052;SDS011;1536;51.098;6.414;2022-10-15T06:45:39;27.43;;;21.20;;
3052;SDS011;1536;51.098;6.414;2022-10-15T06:48:06;31.73;;;21.33;;
3052;SDS011;1536;51.098;6.414;2022-10-15T06:50:34;25.77;;;21.27;;
3052;SDS011;1536;51.098;6.414;2022-10-15T06:53:04;24.53;;;19.13;;
3052;SDS011;1536;51.098;6.414;2022-10-15T06:55:31;24.33;;;20.63;;
3052;SDS011;1536;51.098;6.414;2022-10-15T06:57:58;25.77;;;21.23;;
3052;SDS011;1536;51.098;6.414;2022-10-15T07:00:25;26.00;;;20.37;;
3052;SDS011;1536;51.098;6.414;2022-10-15T07:02:52;24.87;;;19.83;;
3052;SDS011;1536;51.098;6.414;2022-10-15T07:05:19;25.17;;;19.50;;
3052;SDS011;1536;51.098;6.414;2022-10-15T07:07:49;21.20;;;18.40;;
3052;SDS011;1536;51.098;6.414;2022-10-15T07:10:18;24.93;;;20.67;;
3052;SDS011;1536;51.098;6.414;2022-10-15T07:12:45;24.77;;;18.93;;
3052;SDS011;1536;51.098;6.414;2022-10-15T07:15:12;24.30;;;18.53;;
3052;SDS011;1536;51.098;6.414;2022-10-15T07:17:39;24.73;;;18.30;;
3052;SDS011;1536;51.098;6.414;2022-10-15T07:20:11;29.00;;;19.03;;
3052;SDS011;1536;51.098;6.414;2022-10-15T07:22:38;34.37;;;21.93;;
3052;SDS011;1536;51.098;6.414;2022-10-15T07:25:05;30.27;;;21.10;;
3052;SDS011;1536;51.098;6.414;2022-10-15T07:27:35;28.07;;;20.07;;
3052;SDS011;1536;51.098;6.414;2022-10-15T07:30:02;23.40;;;19.00;;
3052;SDS011;1536;51.098;6.414;2022-10-15T07:32:30;31.43;;;18.03;;
3052;SDS011;1536;51.098;6.414;2022-10-15T07:34:57;20.70;;;16.77;;
3052;SDS011;1536;51.098;6.414;2022-10-15T07:37:24;22.20;;;17.53;;
3052;SDS011;1536;51.098;6.414;2022-10-15T07:39:50;24.67;;;18.30;;
3052;SDS011;1536;51.098;6.414;2022-10-15T07:42:17;18.03;;;16.10;;
3052;SDS011;1536;51.098;6.414;2022-10-15T07:44:45;21.87;;;17.03;;
3052;SDS011;1536;51.098;6.414;2022-10-15T07:47:12;22.03;;;16.23;;
3052;SDS011;1536;51.098;6.414;2022-10-15T07:49:39;20.10;;;15.53;;
3052;SDS011;1536;51.098;6.414;2022-10-15T07:52:05;24.60;;;15.40;;
3052;SDS011;1536;51.098;6.414;2022-10-15T07:54:33;18.50;;;13.57;;
3052;SDS011;1536;51.098;6.414;2022-10-15T07:57:00;21.57;;;14.53;;
3052;SDS011;1536;51.098;6.414;2022-10-15T07:59:27;22.03;;;15.20;;
3052;SDS011;1536;51.098;6.414;2022-10-15T08:01:55;15.90;;;13.30;;
3052;SDS011;1536;51.098;6.414;2022-10-15T08:04:21;16.50;;;11.80;;
3052;SDS011;1536;51.098;6.414;2022-10-15T08:06:48;14.90;;;11.47;;
3052;SDS011;1536;51.098;6.414;2022-10-15T08:09:15;14.27;;;12.07;;
3052;SDS011;1536;51.098;6.414;2022-10-15T08:11:42;17.17;;;11.17;;
3052;SDS011;1536;51.098;6.414;2022-10-15T08:14:09;14.67;;;11.53;;
3052;SDS011;1536;51.098;6.414;2022-10-15T08:16:35;13.37;;;11.07;;
3052;SDS011;1536;51.098;6.414;2022-10-15T08:19:03;16.47;;;10.83;;
3052;SDS011;1536;51.098;6.414;2022-10-15T08:21:30;23.87;;;10.53;;
3052;SDS011;1536;51.098;6.414;2022-10-15T08:23:57;11.43;;;8.70;;
3052;SDS011;1536;51.098;6.414;2022-10-15T08:26:24;14.60;;;8.67;;
3052;SDS011;1536;51.098;6.414;2022-10-15T08:28:51;19.50;;;9.00;;
3052;SDS011;1536;51.098;6.414;2022-10-15T08:31:18;11.20;;;7.20;;
3052;SDS011;1536;51.098;6.414;2022-10-15T08:33:44;12.00;;;6.47;;
3052;SDS011;1536;51.098;6.414;2022-10-15T08:36:12;13.90;;;6.50;;
3052;SDS011;1536;51.098;6.414;2022-10-15T08:38:39;9.97;;;5.80;;
3052;SDS011;1536;51.098;6.414;2022-10-15T08:41:13;8.03;;;4.70;;
3052;SDS011;1536;51.098;6.414;2022-10-15T08:43:46;8.03;;;5.10;;
3052;SDS011;1536;51.098;6.414;2022-10-15T08:46:15;11.27;;;5.03;;
3052;SDS011;1536;51.098;6.414;2022-10-15T08:48:47;8.60;;;4.80;;
3052;SDS011;1536;51.098;6.414;2022-10-15T08:51:18;5.83;;;3.97;;
3052;SDS011;1536;51.098;6.414;2022-10-15T08:53:48;8.00;;;4.57;;
3052;SDS011;1536;51.098;6.414;2022-10-15T08:56:18;6.43;;;3.57;;
3052;SDS011;1536;51.098;6.414;2022-10-15T08:58:50;6.90;;;4.00;;
3052;SDS011;1536;51.098;6.414;2022-10-15T09:01:23;13.23;;;3.77;;
3052;SDS011;1536;51.098;6.414;2022-10-15T09:04:01;4.00;;;3.10;;
3052;SDS011;1536;51.098;6.414;2022-10-15T09:06:41;2.77;;;2.50;;
3052;SDS011;1536;51.098;6.414;2022-10-15T09:09:11;10.20;;;2.97;;
3052;SDS011;1536;51.098;6.414;2022-10-15T09:11:46;8.40;;;2.30;;
3052;SDS011;1536;51.098;6.414;2022-10-15T09:14:23;9.40;;;2.80;;
3052;SDS011;1536;51.098;6.414;2022-10-15T09:16:54;8.73;;;3.20;;
3052;SDS011;1536;51.098;6.414;2022-10-15T09:19:21;11.67;;;3.30;;
3052;SDS011;1536;51.098;6.414;2022-10-15T09:21:52;18.10;;;2.70;;
3052;SDS011;1536;51.098;6.414;2022-10-15T09:24:20;7.37;;;2.70;;
3052;SDS011;1536;51.098;6.414;2022-10-15T09:26:51;2.77;;;1.87;;
3052;SDS011;1536;51.098;6.414;2022-10-15T09:29:26;6.80;;;2.20;;
3052;SDS011;1536;51.098;6.414;2022-10-15T09:32:02;3.67;;;2.00;;
3052;SDS011;1536;51.098;6.414;2022-10-15T09:34:37;6.57;;;2.20;;
3052;SDS011;1536;51.098;6.414;2022-10-15T09:37:10;3.23;;;2.03;;
3052;SDS011;1536;51.098;6.414;2022-10-15T09:39:46;5.60;;;2.63;;
3052;SDS011;1536;51.098;6.414;2022-10-15T09:42:28;2.50;;;2.10;;
3052;SDS011;1536;51.098;6.414;2022-10-15T09:44:59;2.30;;;1.63;;
3052;SDS011;1536;51.098;6.414;2022-10-15T09:47:30;10.63;;;3.37;;
3052;SDS011;1536;51.098;6.414;2022-10-15T09:49:58;3.93;;;1.67;;
3052;SDS011;1536;51.098;6.414;2022-10-15T09:52:33;2.37;;;1.50;;
3052;SDS011;1536;51.098;6.414;2022-10-15T09:55:14;5.60;;;1.90;;
3052;SDS011;1536;51.098;6.414;2022-10-15T09:57:57;2.50;;;1.80;;
3052;SDS011;1536;51.098;6.414;2022-10-15T10:00:42;3.13;;;1.90;;
3052;SDS011;1536;51.098;6.414;2022-10-15T10:03:20;4.10;;;2.87;;
3052;SDS011;1536;51.098;6.414;2022-10-15T10:05:47;3.20;;;2.20;;
3052;SDS011;1536;51.098;6.414;2022-10-15T10:08:17;2.77;;;1.73;;
3052;SDS011;1536;51.098;6.414;2022-10-15T10:10:52;4.50;;;1.63;;
3052;SDS011;1536;51.098;6.414;2022-10-15T10:13:21;2.23;;;1.40;;
3052;SDS011;1536;51.098;6.414;2022-10-15T10:15:50;1.93;;;1.30;;
3052;SDS011;1536;51.098;6.414;2022-10-15T10:18:18;4.67;;;1.97;;
3052;SDS011;1536;51.098;6.414;2022-10-15T10:20:53;8.73;;;2.03;;
3052;SDS011;1536;51.098;6.414;2022-10-15T10:23:24;2.90;;;1.53;;
3052;SDS011;1536;51.098;6.414;2022-10-15T10:25:56;3.53;;;1.67;;
3052;SDS011;1536;51.098;6.414;2022-10-15T10:28:25;4.07;;;1.50;;
3052;SDS011;1536;51.098;6.414;2022-10-15T10:31:00;5.40;;;1.87;;
3052;SDS011;1536;51.098;6.414;2022-10-15T10:33:31;4.70;;;1.80;;
3052;SDS011;1536;51.098;6.414;2022-10-15T10:36:01;4.20;;;2.37;;
3052;SDS011;1536;51.098;6.414;2022-10-15T10:38:30;5.10;;;2.67;;
3052;SDS011;1536;51.098;6.414;2022-10-15T10:40:58;3.37;;;2.20;;
3052;SDS011;1536;51.098;6.414;2022-10-15T10:43:31;7.53;;;3.37;;
3052;SDS011;1536;51.098;6.414;2022-10-15T10:45:59;6.87;;;3.60;;
3052;SDS011;1536;51.098;6.414;2022-10-15T10:48:31;8.47;;;4.27;;
3052;SDS011;1536;51.098;6.414;2022-10-15T10:51:05;11.23;;;5.50;;
3052;SDS011;1536;51.098;6.414;2022-10-15T10:53:37;4.83;;;3.50;;
3052;SDS011;1536;51.098;6.414;2022-10-15T10:56:12;5.30;;;3.33;;
3052;SDS011;1536;51.098;6.414;2022-10-15T10:58:39;7.10;;;4.10;;
3052;SDS011;1536;51.098;6.414;2022-10-15T11:01:08;9.73;;;3.93;;
3052;SDS011;1536;51.098;6.414;2022-10-15T11:03:37;6.20;;;2.90;;
3052;SDS011;1536;51.098;6.414;2022-10-15T11:06:12;4.30;;;1.60;;
3052;SDS011;1536;51.098;6.414;2022-10-15T11:09:01;6.57;;;2.67;;
3052;SDS011;1536;51.098;6.414;2022-10-15T11:11:36;2.87;;;2.00;;
3052;SDS011;1536;51.098;6.414;2022-10-15T11:14:14;5.57;;;2.03;;
3052;SDS011;1536;51.098;6.414;2022-10-15T11:16:54;6.20;;;2.60;;
3052;SDS011;1536;51.098;6.414;2022-10-15T11:19:33;6.17;;;1.87;;
3052;SDS011;1536;51.098;6.414;2022-10-15T11:22:13;4.57;;;1.60;;
3052;SDS011;1536;51.098;6.414;2022-10-15T11:24:56;4.33;;;1.93;;
3052;SDS011;1536;51.098;6.414;2022-10-15T11:27:35;5.27;;;1.53;;
3052;SDS011;1536;51.098;6.414;2022-10-15T11:30:18;4.07;;;1.97;;
3052;SDS011;1536;51.098;6.414;2022-10-15T11:32:57;1.50;;;1.00;;
3052;SDS011;1536;51.098;6.414;2022-10-15T11:35:33;1.87;;;1.47;;
3052;SDS011;1536;51.098;6.414;2022-10-15T11:38:11;1.10;;;0.80;;
3052;SDS011;1536;51.098;6.414;2022-10-15T11:40:47;1.90;;;1.10;;
3052;SDS011;1536;51.098;6.414;2022-10-15T11:43:26;2.60;;;1.60;;
3052;SDS011;1536;51.098;6.414;2022-10-15T11:46:08;4.10;;;2.23;;
3052;SDS011;1536;51.098;6.414;2022-10-15T11:48:43;1.93;;;1.67;;
3052;SDS011;1536;51.098;6.414;2022-10-15T11:51:19;1.43;;;1.13;;
3052;SDS011;1536;51.098;6.414;2022-10-15T11:54:01;2.40;;;1.47;;
3052;SDS011;1536;51.098;6.414;2022-10-15T11:56:51;3.13;;;2.40;;
3052;SDS011;1536;51.098;6.414;2022-10-15T11:59:25;2.40;;;1.50;;
3052;SDS011;1536;51.098;6.414;2022-10-15T12:01:58;3.50;;;1.90;;
3052;SDS011;1536;51.098;6.414;2022-10-15T12:04:29;2.23;;;1.73;;
3052;SDS011;1536;51.098;6.414;2022-10-15T12:07:04;3.90;;;2.20;;
3052;SDS011;1536;51.098;6.414;2022-10-15T12:09:37;3.40;;;2.30;;
3052;SDS011;1536;51.098;6.414;2022-10-15T12:12:10;3.47;;;1.80;;
3052;SDS011;1536;51.098;6.414;2022-10-15T12:14:42;1.70;;;1.30;;
3052;SDS011;1536;51.098;6.414;2022-10-15T12:17:16;6.33;;;1.90;;
3052;SDS011;1536;51.098;6.414;2022-10-15T12:19:49;1.87;;;1.23;;
3052;SDS011;1536;51.098;6.414;2022-10-15T12:22:32;3.97;;;1.73;;
3052;SDS011;1536;51.098;6.414;2022-10-15T12:25:01;1.87;;;1.10;;
3052;SDS011;1536;51.098;6.414;2022-10-15T12:27:31;1.50;;;1.10;;
3052;SDS011;1536;51.098;6.414;2022-10-15T12:32:54;2.43;;;1.13;;
3052;SDS011;1536;51.098;6.414;2022-10-15T12:38:10;3.53;;;1.53;;
3052;SDS011;1536;51.098;6.414;2022-10-15T12:40:45;3.17;;;1.20;;
3052;SDS011;1536;51.098;6.414;2022-10-15T12:43:21;3.50;;;2.40;;
3052;SDS011;1536;51.098;6.414;2022-10-15T12:45:49;1.30;;;0.90;;
3052;SDS011;1536;51.098;6.414;2022-10-15T12:48:19;3.87;;;1.57;;
3052;SDS011;1536;51.098;6.414;2022-10-15T12:50:57;2.77;;;1.90;;
3052;SDS011;1536;51.098;6.414;2022-10-15T12:54:15;3.80;;;2.10;;
3052;SDS011;1536;51.098;6.414;2022-10-15T12:56:59;4.37;;;2.10;;
3052;SDS011;1536;51.098;6.414;2022-10-15T12:59:51;1.53;;;1.20;;
3052;SDS011;1536;51.098;6.414;2022-10-15T13:02:30;4.50;;;2.83;;
3052;SDS011;1536;51.098;6.414;2022-10-15T13:05:01;1.63;;;1.40;;
3052;SDS011;1536;51.098;6.414;2022-10-15T13:07:29;2.23;;;1.90;;
3052;SDS011;1536;51.098;6.414;2022-10-15T13:09:57;1.40;;;1.10;;
3052;SDS011;1536;51.098;6.414;2022-10-15T13:12:26;2.30;;;1.27;;
3052;SDS011;1536;51.098;6.414;2022-10-15T13:14:57;3.17;;;1.00;;
3052;SDS011;1536;51.098;6.414;2022-10-15T13:17:30;1.00;;;0.70;;
3052;SDS011;1536;51.098;6.414;2022-10-15T13:19:57;2.70;;;1.17;;
3052;SDS011;1536;51.098;6.414;2022-10-15T13:22:29;1.63;;;1.20;;
3052;SDS011;1536;51.098;6.414;2022-10-15T13:24:57;1.10;;;0.80;;
3052;SDS011;1536;51.098;6.414;2022-10-15T13:27:25;2.73;;;1.83;;
3052;SDS011;1536;51.098;6.414;2022-10-15T13:29:55;1.33;;;0.80;;
3052;SDS011;1536;51.098;6.414;2022-10-15T13:32:25;1.43;;;0.80;;
3052;SDS011;1536;51.098;6.414;2022-10-15T13:34:53;1.70;;;1.20;;
3052;SDS011;1536;51.098;6.414;2022-10-15T13:37:23;1.57;;;0.93;;
3052;SDS011;1536;51.098;6.414;2022-10-15T13:39:55;2.10;;;0.90;;
3052;SDS011;1536;51.098;6.414;2022-10-15T13:42:22;2.23;;;1.70;;
3052;SDS011;1536;51.098;6.414;2022-10-15T13:44:58;1.93;;;0.90;;
3052;SDS011;1536;51.098;6.414;2022-10-15T13:47:29;5.03;;;0.97;;
3052;SDS011;1536;51.098;6.414;2022-10-15T13:50:11;2.67;;;0.70;;
3052;SDS011;1536;51.098;6.414;2022-10-15T13:52:46;1.27;;;1.00;;
3052;SDS011;1536;51.098;6.414;2022-10-15T13:55:17;1.70;;;1.57;;
3052;SDS011;1536;51.098;6.414;2022-10-15T13:57:47;3.40;;;1.60;;
3052;SDS011;1536;51.098;6.414;2022-10-15T14:00:21;2.37;;;1.33;;
3052;SDS011;1536;51.098;6.414;2022-10-15T14:03:06;1.40;;;1.20;;
3052;SDS011;1536;51.098;6.414;2022-10-15T14:05:41;1.83;;;1.23;;
3052;SDS011;1536;51.098;6.414;2022-10-15T14:08:17;6.20;;;3.10;;
3052;SDS011;1536;51.098;6.414;2022-10-15T14:10:45;3.17;;;1.10;;
3052;SDS011;1536;51.098;6.414;2022-10-15T14:13:12;2.77;;;1.60;;
3052;SDS011;1536;51.098;6.414;2022-10-15T14:15:42;3.40;;;1.30;;
3052;SDS011;1536;51.098;6.414;2022-10-15T14:18:13;1.60;;;1.17;;
3052;SDS011;1536;51.098;6.414;2022-10-15T14:20:42;2.93;;;1.30;;
3052;SDS011;1536;51.098;6.414;2022-10-15T14:23:14;1.73;;;1.27;;
3052;SDS011;1536;51.098;6.414;2022-10-15T14:25:42;5.33;;;1.60;;
3052;SDS011;1536;51.098;6.414;2022-10-15T14:28:15;3.10;;;1.50;;
3052;SDS011;1536;51.098;6.414;2022-10-15T14:30:47;4.07;;;1.70;;
3052;SDS011;1536;51.098;6.414;2022-10-15T14:33:28;5.53;;;1.83;;
3052;SDS011;1536;51.098;6.414;2022-10-15T14:36:03;4.63;;;2.70;;
3052;SDS011;1536;51.098;6.414;2022-10-15T14:38:32;3.20;;;1.57;;
3052;SDS011;1536;51.098;6.414;2022-10-15T14:40:59;10.87;;;1.60;;
3052;SDS011;1536;51.098;6.414;2022-10-15T14:43:28;1.67;;;1.00;;
3052;SDS011;1536;51.098;6.414;2022-10-15T14:45:59;3.23;;;1.17;;
3052;SDS011;1536;51.098;6.414;2022-10-15T14:48:30;2.13;;;1.57;;
3052;SDS011;1536;51.098;6.414;2022-10-15T14:50:58;2.90;;;1.50;;
3052;SDS011;1536;51.098;6.414;2022-10-15T14:53:29;3.60;;;1.77;;
3052;SDS011;1536;51.098;6.414;2022-10-15T14:56:01;4.13;;;2.10;;
3052;SDS011;1536;51.098;6.414;2022-10-15T14:58:31;2.40;;;1.40;;
3052;SDS011;1536;51.098;6.414;2022-10-15T15:01:00;2.10;;;1.47;;
3052;SDS011;1536;51.098;6.414;2022-10-15T15:03:30;3.90;;;1.83;;
3052;SDS011;1536;51.098;6.414;2022-10-15T15:06:04;3.20;;;2.00;;
3052;SDS011;1536;51.098;6.414;2022-10-15T15:08:30;3.23;;;2.43;;
3052;SDS011;1536;51.098;6.414;2022-10-15T15:10:59;2.37;;;1.70;;
3052;SDS011;1536;51.098;6.414;2022-10-15T15:13:29;3.57;;;2.47;;
3052;SDS011;1536;51.098;6.414;2022-10-15T15:15:57;3.27;;;2.27;;
3052;SDS011;1536;51.098;6.414;2022-10-15T15:18:25;3.30;;;2.20;;
3052;SDS011;1536;51.098;6.414;2022-10-15T15:20:52;2.73;;;2.17;;
3052;SDS011;1536;51.098;6.414;2022-10-15T15:23:21;2.70;;;2.17;;
3052;SDS011;1536;51.098;6.414;2022-10-15T15:25:50;3.00;;;2.70;;
3052;SDS011;1536;51.098;6.414;2022-10-15T15:28:18;2.77;;;2.30;;
3052;SDS011;1536;51.098;6.414;2022-10-15T15:30:49;5.77;;;3.40;;
3052;SDS011;1536;51.098;6.414;2022-10-15T15:33:25;4.93;;;3.03;;